Time;durP1;ratioP1;P1;durP2;ratioP2;P2;SDS_P1;SDS_P2;PMS_P1;PMS_P2;Temp;Humidity;BMP_temperature;BMP_pressure;BME280_temperature;BME280_humidity;BME280_pressure;Samples;Min_cycle;Max_cycle;Signal;HPM_P1;HPM_P2
2021/01/02 00:02:01;;;;;;;5.20;3.30;;;;;;;;;;6180676;23;20028;-88
2021/01/02 00:04:27;;;;;;;6.25;3.40;;;;;;;;;;6157594;23;20050;-94
2021/01/02 00:07:12;;;;;;;4.20;2.75;;;;;;;;;;6158878;23;20115;-95
2021/01/02 00:09:43;;;;;;;4.57;2.85;;;;;;;;;;6185250;23;20048;-93
2021/01/02 00:12:34;;;;;;;4.55;2.75;;;;;;;;;;6182368;23;20048;-91
2021/01/02 00:15:06;;;;;;;3.63;2.80;;;;;;;;;;6182194;23;20579;-94
2021/01/02 00:17:47;;;;;;;5.18;3.00;;;;;;;;;;6182741;23;20021;-94
2021/01/02 00:20:22;;;;;;;4.75;3.08;;;;;;;;;;6181191;23;20031;-93
2021/01/02 00:22:53;;;;;;;3.88;2.72;;;;;;;;;;6183262;23;20021;-89
2021/01/02 00:25:23;;;;;;;4.50;2.80;;;;;;;;;;6180910;23;20060;-80
2021/01/02 00:28:08;;;;;;;4.88;3.42;;;;;;;;;;6179200;23;20035;-80
2021/01/02 00:30:34;;;;;;;5.93;3.75;;;;;;;;;;6180185;23;20031;-80
2021/01/02 00:33:16;;;;;;;4.63;3.15;;;;;;;;;;6180704;23;20056;-80
2021/01/02 00:35:43;;;;;;;5.53;3.60;;;;;;;;;;6179420;23;20465;-80
2021/01/02 00:38:11;;;;;;;4.35;3.08;;;;;;;;;;6180646;23;20060;-80
2021/01/02 00:40:38;;;;;;;4.25;2.97;;;;;;;;;;6181148;23;20024;-80
2021/01/02 00:43:06;;;;;;;5.60;2.58;;;;;;;;;;6181628;23;20372;-80
2021/01/02 00:45:33;;;;;;;4.68;3.28;;;;;;;;;;6181061;23;20020;-80
2021/01/02 00:48:20;;;;;;;5.32;3.10;;;;;;;;;;6180648;23;20025;-79
2021/01/02 00:50:48;;;;;;;4.97;2.90;;;;;;;;;;6177845;23;20017;-79
2021/01/02 00:53:17;;;;;;;5.28;3.17;;;;;;;;;;6180491;23;20092;-80
2021/01/02 00:55:59;;;;;;;4.57;2.95;;;;;;;;;;6181061;23;20028;-79
2021/01/02 00:58:43;;;;;;;3.60;2.80;;;;;;;;;;6181498;23;20068;-80
2021/01/02 01:01:14;;;;;;;3.97;2.80;;;;;;;;;;6181061;23;20025;-80
2021/01/02 01:03:44;;;;;;;3.88;2.70;;;;;;;;;;6180429;23;20122;-81
2021/01/02 01:06:11;;;;;;;5.78;3.20;;;;;;;;;;6180435;23;20032;-81
2021/01/02 01:08:44;;;;;;;14.57;3.15;;;;;;;;;;6181407;23;20465;-80
2021/01/02 01:11:11;;;;;;;6.15;2.95;;;;;;;;;;6180709;23;20032;-79
2021/01/02 01:13:38;;;;;;;4.43;2.72;;;;;;;;;;6181292;23;20461;-80
2021/01/02 01:16:04;;;;;;;6.82;3.65;;;;;;;;;;6180848;23;20029;-80
2021/01/02 01:18:49;;;;;;;5.53;3.28;;;;;;;;;;6181535;23;20029;-79
2021/01/02 01:21:15;;;;;;;6.78;4.00;;;;;;;;;;6181775;23;20430;-80
2021/01/02 01:23:53;;;;;;;5.07;3.45;;;;;;;;;;6182620;23;20056;-80
2021/01/02 01:26:19;;;;;;;6.68;3.88;;;;;;;;;;6183962;23;20032;-81
2021/01/02 01:28:47;;;;;;;4.65;3.40;;;;;;;;;;6184331;23;20017;-82
2021/01/02 01:31:15;;;;;;;4.78;3.38;;;;;;;;;;6184583;23;20063;-81
2021/01/02 01:33:46;;;;;;;5.97;4.05;;;;;;;;;;6184583;23;20345;-80
2021/01/02 01:36:14;;;;;;;5.22;3.60;;;;;;;;;;6185041;23;20021;-79
2021/01/02 01:38:42;;;;;;;5.18;3.30;;;;;;;;;;6185436;23;20464;-80
2021/01/02 01:41:15;;;;;;;5.43;3.70;;;;;;;;;;6186939;23;20021;-82
2021/01/02 01:43:50;;;;;;;4.22;3.55;;;;;;;;;;6185609;23;20025;-81
2021/01/02 01:46:17;;;;;;;5.50;3.03;;;;;;;;;;6185900;23;20087;-80
2021/01/02 01:48:53;;;;;;;4.75;3.20;;;;;;;;;;6187354;23;20099;-80
2021/01/02 01:51:28;;;;;;;3.85;2.90;;;;;;;;;;6185728;23;20092;-81
2021/01/02 01:53:54;;;;;;;5.03;3.28;;;;;;;;;;6186385;23;20096;-80
2021/01/02 01:56:31;;;;;;;7.35;4.05;;;;;;;;;;6185569;23;20108;-81
2021/01/02 01:59:12;;;;;;;4.75;3.22;;;;;;;;;;6185275;23;20473;-80
2021/01/02 02:01:40;;;;;;;6.95;3.13;;;;;;;;;;6183308;23;20029;-80
2021/01/02 02:04:10;;;;;;;5.00;3.13;;;;;;;;;;6183314;23;20092;-79
2021/01/02 02:06:45;;;;;;;5.35;3.42;;;;;;;;;;6182802;23;20057;-79
2021/01/02 02:09:21;;;;;;;4.80;2.88;;;;;;;;;;6183443;23;20401;-83
2021/01/02 02:12:13;;;;;;;5.75;3.63;;;;;;;;;;6183231;23;20021;-81
2021/01/02 02:14:58;;;;;;;4.45;3.38;;;;;;;;;;6176825;23;20021;-82
2021/01/02 02:17:25;;;;;;;5.30;3.50;;;;;;;;;;6182325;23;20341;-80
2021/01/02 02:20:06;;;;;;;5.85;3.63;;;;;;;;;;6154582;23;20496;-79
2021/01/02 02:22:37;;;;;;;4.60;3.33;;;;;;;;;;6182257;23;20021;-77
2021/01/02 02:25:07;;;;;;;4.97;3.95;;;;;;;;;;6183543;23;20021;-82
2021/01/02 02:27:35;;;;;;;3.97;3.03;;;;;;;;;;6183433;23;20025;-82
2021/01/02 02:30:05;;;;;;;6.05;3.13;;;;;;;;;;6182961;23;20005;-82
2021/01/02 02:32:35;;;;;;;4.75;3.33;;;;;;;;;;6183497;23;20021;-82
2021/01/02 02:35:01;;;;;;;;;;;;;;;;;;6183840;23;20017;-83
2021/01/02 02:37:27;;;;;;;5.32;3.17;;;;;;;;;;6181939;23;20244;-83
2021/01/02 02:39:53;;;;;;;4.75;3.00;;;;;;;;;;6181312;23;20109;-82
2021/01/02 02:42:22;;;;;;;4.80;2.97;;;;;;;;;;6183162;23;20099;-83
2021/01/02 02:44:50;;;;;;;5.28;3.85;;;;;;;;;;6182062;23;20088;-77
2021/01/02 02:47:18;;;;;;;4.72;3.20;;;;;;;;;;6181267;23;20029;-77
2021/01/02 02:49:47;;;;;;;4.50;3.22;;;;;;;;;;6181577;23;20059;-79
2021/01/02 02:52:19;;;;;;;4.95;2.92;;;;;;;;;;6184423;23;20099;-78
2021/01/02 02:54:47;;;;;;;5.53;3.20;;;;;;;;;;6182243;23;20048;-80
2021/01/02 02:57:15;;;;;;;4.72;3.20;;;;;;;;;;6182563;23;20027;-78
2021/01/02 02:59:41;;;;;;;8.35;3.17;;;;;;;;;;6183331;23;20017;-79
2021/01/02 03:02:08;;;;;;;8.63;3.90;;;;;;;;;;6183563;23;20105;-81
2021/01/02 03:04:35;;;;;;;7.28;3.35;;;;;;;;;;6181218;23;20100;-79
2021/01/02 03:07:04;;;;;;;6.32;3.22;;;;;;;;;;6180864;23;20021;-78
2021/01/02 03:09:31;;;;;;;5.50;3.72;;;;;;;;;;6182708;23;20021;-78
2021/01/02 03:11:57;;;;;;;5.35;3.58;;;;;;;;;;6183276;23;20103;-78
2021/01/02 03:14:25;;;;;;;4.70;3.42;;;;;;;;;;6184044;23;20021;-75
2021/01/02 03:16:57;;;;;;;5.22;3.58;;;;;;;;;;6183375;23;20555;-78
2021/01/02 03:19:27;;;;;;;6.25;3.67;;;;;;;;;;6182492;23;20021;-78
2021/01/02 03:21:54;;;;;;;5.47;3.45;;;;;;;;;;6182133;23;20056;-77
2021/01/02 03:24:20;;;;;;;4.53;3.10;;;;;;;;;;6183850;23;20091;-78
2021/01/02 03:26:47;;;;;;;4.72;3.40;;;;;;;;;;6183336;23;20025;-77
2021/01/02 03:29:13;;;;;;;5.65;3.63;;;;;;;;;;6183196;23;20024;-78
2021/01/02 03:31:39;;;;;;;5.68;3.55;;;;;;;;;;6182755;23;20103;-78
2021/01/02 03:34:06;;;;;;;4.80;3.00;;;;;;;;;;6182852;23;20100;-78
2021/01/02 03:36:32;;;;;;;4.97;3.53;;;;;;;;;;6181717;23;20432;-80
2021/01/02 03:38:59;;;;;;;4.57;3.28;;;;;;;;;;6181403;23;20483;-78
2021/01/02 03:41:27;;;;;;;6.38;3.45;;;;;;;;;;6182698;23;20021;-79
2021/01/02 03:43:53;;;;;;;5.53;4.18;;;;;;;;;;6183951;23;20397;-78
2021/01/02 03:46:19;;;;;;;5.70;4.30;;;;;;;;;;6182777;23;20394;-78
2021/01/02 03:48:46;;;;;;;6.05;3.53;;;;;;;;;;6182675;23;20742;-79
2021/01/02 03:51:12;;;;;;;6.05;3.58;;;;;;;;;;6183236;23;20017;-79
2021/01/02 03:53:38;;;;;;;5.88;4.43;;;;;;;;;;6183113;23;20029;-79
2021/01/02 03:56:05;;;;;;;5.60;3.85;;;;;;;;;;6182480;23;20069;-78
2021/01/02 03:58:31;;;;;;;6.30;3.78;;;;;;;;;;6182623;23;20060;-79
2021/01/02 04:00:57;;;;;;;6.35;4.30;;;;;;;;;;6182991;23;20020;-79
2021/01/02 04:03:24;;;;;;;5.47;4.03;;;;;;;;;;6183340;23;20112;-79
2021/01/02 04:05:50;;;;;;;5.40;4.18;;;;;;;;;;6182499;23;20027;-79
2021/01/02 04:08:16;;;;;;;6.97;4.30;;;;;;;;;;6182887;23;20063;-79
2021/01/02 04:10:43;;;;;;;6.43;4.35;;;;;;;;;;6182287;23;20104;-79
2021/01/02 04:13:10;;;;;;;6.05;4.47;;;;;;;;;;6182993;23;20103;-79
2021/01/02 04:15:36;;;;;;;5.85;3.80;;;;;;;;;;6182271;23;20099;-80
2021/01/02 04:18:02;;;;;;;5.32;4.35;;;;;;;;;;6182168;23;20100;-77
2021/01/02 04:20:29;;;;;;;6.80;4.03;;;;;;;;;;6182975;23;20103;-78
2021/01/02 04:22:55;;;;;;;7.15;4.00;;;;;;;;;;6182958;23;20080;-78
2021/01/02 04:25:21;;;;;;;6.30;4.10;;;;;;;;;;6183079;23;20103;-78
2021/01/02 04:27:48;;;;;;;6.30;5.05;;;;;;;;;;6181616;23;20029;-78
2021/01/02 04:30:14;;;;;;;5.18;4.15;;;;;;;;;;6181999;23;20408;-79
2021/01/02 04:32:48;;;;;;;5.53;3.95;;;;;;;;;;6182203;23;20055;-77
2021/01/02 04:35:14;;;;;;;5.85;4.55;;;;;;;;;;6181775;23;20021;-78
2021/01/02 04:37:41;;;;;;;5.00;4.10;;;;;;;;;;6182969;23;20039;-78
2021/01/02 04:40:12;;;;;;;6.80;4.53;;;;;;;;;;6181938;23;20028;-77
2021/01/02 04:42:40;;;;;;;6.72;4.47;;;;;;;;;;6182262;23;20025;-80
2021/01/02 04:45:07;;;;;;;5.82;4.07;;;;;;;;;;6182722;23;20096;-79
2021/01/02 04:47:34;;;;;;;5.53;4.05;;;;;;;;;;6182096;23;21241;-78
2021/01/02 04:50:01;;;;;;;4.57;3.55;;;;;;;;;;6181781;23;20096;-78
2021/01/02 04:52:29;;;;;;;6.45;4.38;;;;;;;;;;6180692;23;20100;-78
2021/01/02 04:54:55;;;;;;;5.93;3.90;;;;;;;;;;6183147;23;20683;-76
2021/01/02 04:57:22;;;;;;;4.93;3.80;;;;;;;;;;6183037;23;20040;-77
2021/01/02 04:59:49;;;;;;;6.15;4.28;;;;;;;;;;6183303;23;20541;-77
2021/01/02 05:02:17;;;;;;;8.52;4.10;;;;;;;;;;6183626;23;20107;-79
2021/01/02 05:04:52;;;;;;;5.22;3.97;;;;;;;;;;6185393;23;20017;-77
2021/01/02 05:07:22;;;;;;;5.85;3.63;;;;;;;;;;6184452;23;20052;-77
2021/01/02 05:09:48;;;;;;;;;;;;;;;;;;6158224;23;20031;-78
2021/01/02 05:12:25;;;;;;;6.22;4.20;;;;;;;;;;6184094;23;19920;-78
2021/01/02 05:15:02;;;;;;;6.85;4.28;;;;;;;;;;6184307;23;20031;-78
2021/01/02 05:17:28;;;;;;;6.85;4.20;;;;;;;;;;6183806;23;20096;-78
2021/01/02 05:19:59;;;;;;;5.65;4.50;;;;;;;;;;6184278;23;20334;-77
2021/01/02 05:22:25;;;;;;;4.45;3.72;;;;;;;;;;6184311;23;20021;-77
2021/01/02 05:25:24;;;;;;;5.03;3.47;;;;;;;;;;6184621;23;20525;-76
2021/01/02 05:27:51;;;;;;;6.40;4.10;;;;;;;;;;6102832;23;20025;-78
2021/01/02 05:30:21;;;;;;;5.22;3.90;;;;;;;;;;6183085;23;20341;-81
2021/01/02 05:32:53;;;;;;;5.13;3.28;;;;;;;;;;6183899;23;20133;-81
2021/01/02 05:35:23;;;;;;;6.50;3.33;;;;;;;;;;6184393;23;20104;-80
2021/01/02 05:37:49;;;;;;;3.95;3.05;;;;;;;;;;6183419;23;20036;-80
2021/01/02 05:40:35;;;;;;;3.95;3.58;;;;;;;;;;6184606;23;20390;-81
2021/01/02 05:43:01;;;;;;;6.25;3.42;;;;;;;;;;6185070;23;20021;-81
2021/01/02 05:45:28;;;;;;;4.93;3.67;;;;;;;;;;6184685;23;20100;-81
2021/01/02 05:48:17;;;;;;;4.97;3.35;;;;;;;;;;6183208;23;20104;-81
2021/01/02 05:50:45;;;;;;;5.28;3.80;;;;;;;;;;6166225;23;20060;-80
2021/01/02 05:53:19;;;;;;;5.00;3.50;;;;;;;;;;6184266;23;20406;-81
2021/01/02 05:55:45;;;;;;;6.82;3.63;;;;;;;;;;6183578;23;20096;-81
2021/01/02 05:58:14;;;;;;;5.28;3.63;;;;;;;;;;6184585;23;20021;-78
2021/01/02 06:00:44;;;;;;;5.03;3.00;;;;;;;;;;6157353;23;20100;-77
2021/01/02 06:03:10;;;;;;;;;;;;;;;;;;6184801;23;20060;-78
2021/01/02 06:05:36;;;;;;;5.93;3.28;;;;;;;;;;6182428;23;19927;-77
2021/01/02 06:08:03;;;;;;;4.78;3.45;;;;;;;;;;6183870;23;20025;-77
2021/01/02 06:10:29;;;;;;;4.72;2.90;;;;;;;;;;6156317;23;20025;-77
2021/01/02 06:12:55;;;;;;;4.53;3.35;;;;;;;;;;6157247;23;20516;-76
2021/01/02 06:15:24;;;;;;;4.53;3.28;;;;;;;;;;6183405;23;20076;-76
2021/01/02 06:17:50;;;;;;;3.85;2.83;;;;;;;;;;6184774;23;20104;-77
2021/01/02 06:20:17;;;;;;;5.00;3.05;;;;;;;;;;6182927;23;20380;-77
2021/01/02 06:22:43;;;;;;;4.68;3.35;;;;;;;;;;6183386;23;20473;-77
2021/01/02 06:25:11;;;;;;;5.22;3.67;;;;;;;;;;6183743;23;20096;-78
2021/01/02 06:27:41;;;;;;;4.47;3.20;;;;;;;;;;6158126;23;20024;-77
2021/01/02 06:30:07;;;;;;;4.63;2.70;;;;;;;;;;6183705;23;20349;-78
2021/01/02 06:32:34;;;;;;;4.30;3.30;;;;;;;;;;6183650;23;20107;-78
2021/01/02 06:35:10;;;;;;;7.40;3.40;;;;;;;;;;6183567;23;20077;-78
2021/01/02 06:37:46;;;;;;;5.40;3.45;;;;;;;;;;6183908;23;20048;-80
2021/01/02 06:40:18;;;;;;;4.95;3.33;;;;;;;;;;6183192;23;20449;-79
2021/01/02 06:43:07;;;;;;;3.83;2.47;;;;;;;;;;6182206;23;20017;-80
2021/01/02 06:45:39;;;;;;;3.47;2.50;;;;;;;;;;6183303;23;20481;-79
2021/01/02 06:48:26;;;;;;;4.80;3.17;;;;;;;;;;6184209;23;20028;-83
2021/01/02 06:50:54;;;;;;;4.10;2.88;;;;;;;;;;6156471;23;20100;-83
2021/01/02 06:53:27;;;;;;;3.78;2.45;;;;;;;;;;6182643;23;20453;-82
2021/01/02 06:56:04;;;;;;;5.40;2.53;;;;;;;;;;6184293;23;20017;-82
2021/01/02 06:58:42;;;;;;;4.53;2.75;;;;;;;;;;6183444;23;20095;-84
2021/01/02 07:01:09;;;;;;;4.55;2.78;;;;;;;;;;6183629;23;20540;-84
2021/01/02 07:03:44;;;;;;;3.83;2.63;;;;;;;;;;6183480;23;20059;-84
2021/01/02 07:06:22;;;;;;;3.10;2.50;;;;;;;;;;6183890;23;20043;-85
2021/01/02 07:08:52;;;;;;;3.58;2.72;;;;;;;;;;6182266;23;20029;-83
2021/01/02 07:11:25;;;;;;;3.40;2.40;;;;;;;;;;6183694;23;20031;-85
2021/01/02 07:14:09;;;;;;;3.35;2.40;;;;;;;;;;6183507;23;20104;-83
2021/01/02 07:16:35;;;;;;;3.55;2.95;;;;;;;;;;6182911;23;20079;-84
2021/01/02 07:19:03;;;;;;;3.85;2.70;;;;;;;;;;6182392;23;20025;-84
2021/01/02 07:21:39;;;;;;;3.20;2.33;;;;;;;;;;6184782;23;20021;-84
2021/01/02 07:24:23;;;;;;;4.18;2.58;;;;;;;;;;6183141;23;20025;-85
2021/01/02 07:26:55;;;;;;;3.05;2.58;;;;;;;;;;6183634;23;20035;-85
2021/01/02 07:29:22;;;;;;;3.30;2.15;;;;;;;;;;6157406;23;20028;-85
2021/01/02 07:31:48;;;;;;;3.05;2.30;;;;;;;;;;6185330;23;20461;-84
2021/01/02 07:34:17;;;;;;;3.45;2.53;;;;;;;;;;6183254;23;20434;-83
2021/01/02 07:36:44;;;;;;;3.45;2.28;;;;;;;;;;6182352;23;20027;-82
2021/01/02 07:39:10;;;;;;;3.50;2.88;;;;;;;;;;6183356;23;20059;-81
2021/01/02 07:41:36;;;;;;;3.55;2.55;;;;;;;;;;6181925;23;20021;-80
2021/01/02 07:44:03;;;;;;;3.08;2.47;;;;;;;;;;6183316;23;20357;-83
2021/01/02 07:46:32;;;;;;;3.50;2.67;;;;;;;;;;6183001;23;20493;-80
2021/01/02 07:48:59;;;;;;;3.85;2.30;;;;;;;;;;6183096;23;20134;-83
2021/01/02 07:51:26;;;;;;;3.03;2.10;;;;;;;;;;6180390;23;20024;-86
2021/01/02 07:53:53;;;;;;;4.65;3.13;;;;;;;;;;6182602;23;20465;-85
2021/01/02 07:56:35;;;;;;;3.00;2.65;;;;;;;;;;6180204;23;20021;-82
2021/01/02 07:59:20;;;;;;;3.97;2.50;;;;;;;;;;6179572;23;20099;-79
2021/01/02 08:01:51;;;;;;;3.55;2.80;;;;;;;;;;6180222;23;20020;-82
2021/01/02 08:04:18;;;;;;;3.47;2.50;;;;;;;;;;6181787;23;20021;-88
2021/01/02 08:06:45;;;;;;;3.13;2.60;;;;;;;;;;6183254;23;20061;-85
2021/01/02 08:09:12;;;;;;;3.50;2.55;;;;;;;;;;6181945;23;20017;-83
2021/01/02 08:11:38;;;;;;;3.42;2.55;;;;;;;;;;6155324;23;20020;-86
2021/01/02 08:14:06;;;;;;;3.35;2.45;;;;;;;;;;6182361;23;20747;-83
2021/01/02 08:16:32;;;;;;;2.80;2.53;;;;;;;;;;6186142;23;20024;-88
2021/01/02 08:19:02;;;;;;;2.90;2.20;;;;;;;;;;6175574;22;20021;-79
2021/01/02 08:21:29;;;;;;;3.28;2.40;;;;;;;;;;6182109;23;20103;-84
2021/01/02 08:23:55;;;;;;;3.45;2.28;;;;;;;;;;6181235;23;20095;-73
2021/01/02 08:26:21;;;;;;;3.88;2.78;;;;;;;;;;6153672;23;20036;-76
2021/01/02 08:28:48;;;;;;;4.65;2.85;;;;;;;;;;6178081;23;20368;-74
2021/01/02 08:31:16;;;;;;;3.72;2.88;;;;;;;;;;6181635;23;20404;-76
2021/01/02 08:33:42;;;;;;;4.15;2.97;;;;;;;;;;6181361;23;20021;-77
2021/01/02 08:36:15;;;;;;;3.42;2.70;;;;;;;;;;6154872;23;20040;-77
2021/01/02 08:38:41;;;;;;;3.10;2.60;;;;;;;;;;6180681;23;20453;-77
2021/01/02 08:41:16;;;;;;;4.15;3.20;;;;;;;;;;6183279;23;20053;-76
2021/01/02 08:43:47;;;;;;;3.75;2.80;;;;;;;;;;6181702;23;20092;-76
2021/01/02 08:46:13;;;;;;;2.63;2.17;;;;;;;;;;6182002;23;20064;-76
2021/01/02 08:48:46;;;;;;;3.28;2.30;;;;;;;;;;6181593;23;20025;-76
2021/01/02 08:51:27;;;;;;;2.90;2.33;;;;;;;;;;6181731;23;20103;-76
2021/01/02 08:53:53;;;;;;;3.38;2.00;;;;;;;;;;6180955;23;20021;-76
2021/01/02 08:56:27;;;;;;;3.03;2.22;;;;;;;;;;6182572;23;20445;-77
2021/01/02 08:58:54;;;;;;;2.58;1.92;;;;;;;;;;6182095;23;20072;-72
2021/01/02 09:01:20;;;;;;;4.20;2.15;;;;;;;;;;6155957;23;20021;-84
2021/01/02 09:03:46;;;;;;;3.05;2.15;;;;;;;;;;6182147;23;20525;-78
2021/01/02 09:06:22;;;;;;;2.40;1.77;;;;;;;;;;6182334;23;20021;-80
2021/01/02 09:08:58;;;;;;;3.30;2.22;;;;;;;;;;6182255;23;20025;-81
2021/01/02 09:11:24;;;;;;;3.30;2.20;;;;;;;;;;6183228;23;20017;-82
2021/01/02 09:14:03;;;;;;;2.97;2.33;;;;;;;;;;6178232;23;20103;-78
2021/01/02 09:16:30;;;;;;;3.47;2.00;;;;;;;;;;6181472;23;20017;-78
2021/01/02 09:18:56;;;;;;;3.20;2.00;;;;;;;;;;6182343;23;20520;-81
2021/01/02 09:21:23;;;;;;;3.67;2.45;;;;;;;;;;6156197;23;20052;-79
2021/01/02 09:23:57;;;;;;;3.53;2.35;;;;;;;;;;6158210;23;20028;-78
2021/01/02 09:26:25;;;;;;;3.25;2.75;;;;;;;;;;6182769;23;20456;-77
2021/01/02 09:28:52;;;;;;;2.70;1.95;;;;;;;;;;6155237;23;20031;-77
2021/01/02 09:31:19;;;;;;;4.97;2.53;;;;;;;;;;6182226;23;20024;-80
2021/01/02 09:33:45;;;;;;;3.30;2.33;;;;;;;;;;6182147;23;20099;-77
2021/01/02 09:36:12;;;;;;;4.22;2.40;;;;;;;;;;6182484;23;20100;-79
2021/01/02 09:38:39;;;;;;;5.45;2.30;;;;;;;;;;6180647;23;20029;-76
2021/01/02 09:41:05;;;;;;;3.13;2.10;;;;;;;;;;6182667;23;20021;-76
2021/01/02 09:43:31;;;;;;;8.65;2.22;;;;;;;;;;6182189;23;20469;-77
2021/01/02 09:45:57;;;;;;;4.40;2.20;;;;;;;;;;6182281;23;20132;-80
2021/01/02 09:48:23;;;;;;;5.32;2.25;;;;;;;;;;6185361;23;20128;-80
2021/01/02 09:50:50;;;;;;;5.00;3.03;;;;;;;;;;6183148;23;20020;-79
2021/01/02 09:53:17;;;;;;;7.13;2.67;;;;;;;;;;6183818;23;20029;-80
2021/01/02 09:55:43;;;;;;;4.35;2.80;;;;;;;;;;6184254;23;20017;-79
2021/01/02 09:58:10;;;;;;;6.65;3.15;;;;;;;;;;6184350;23;20027;-77
2021/01/02 10:00:37;;;;;;;5.22;3.05;;;;;;;;;;6184976;23;20021;-78
2021/01/02 10:03:06;;;;;;;6.40;3.42;;;;;;;;;;6183557;23;20021;-78
2021/01/02 10:05:41;;;;;;;4.63;2.85;;;;;;;;;;6183919;23;20100;-78
2021/01/02 10:08:07;;;;;;;5.28;2.53;;;;;;;;;;6183669;23;20348;-78
2021/01/02 10:10:33;;;;;;;5.75;3.42;;;;;;;;;;6184849;23;20024;-78
2021/01/02 10:12:59;;;;;;;3.97;2.75;;;;;;;;;;6183584;23;20071;-78
2021/01/02 10:15:26;;;;;;;5.13;3.50;;;;;;;;;;6184779;23;20048;-79
2021/01/02 10:17:53;;;;;;;3.13;2.65;;;;;;;;;;6183893;23;20418;-79
2021/01/02 10:20:19;;;;;;;5.28;2.83;;;;;;;;;;6183882;23;20397;-78
2021/01/02 10:22:45;;;;;;;5.65;3.08;;;;;;;;;;6183107;23;20017;-78
2021/01/02 10:25:11;;;;;;;6.78;2.83;;;;;;;;;;6180141;23;20031;-77
2021/01/02 10:27:38;;;;;;;4.28;3.10;;;;;;;;;;6182868;23;20032;-77
2021/01/02 10:30:05;;;;;;;5.25;2.63;;;;;;;;;;6181165;23;20056;-78
2021/01/02 10:32:31;;;;;;;4.47;2.75;;;;;;;;;;6178567;23;20377;-77
2021/01/02 10:34:57;;;;;;;3.60;2.67;;;;;;;;;;6180222;23;20032;-79
2021/01/02 10:37:25;;;;;;;3.67;2.83;;;;;;;;;;6181528;23;20021;-79
2021/01/02 10:39:51;;;;;;;3.08;2.30;;;;;;;;;;6182423;23;20025;-79
2021/01/02 10:42:20;;;;;;;5.53;3.38;;;;;;;;;;6182310;23;20410;-79
2021/01/02 10:44:47;;;;;;;12.40;2.53;;;;;;;;;;6156765;23;20056;-82
2021/01/02 10:47:17;;;;;;;4.47;2.85;;;;;;;;;;6183306;23;20100;-80
2021/01/02 10:49:43;;;;;;;9.18;3.33;;;;;;;;;;6182000;23;20024;-78
2021/01/02 10:52:09;;;;;;;5.35;2.72;;;;;;;;;;6183298;23;20093;-77
2021/01/02 10:54:36;;;;;;;9.68;3.88;;;;;;;;;;6181953;23;20063;-78
2021/01/02 10:57:02;;;;;;;7.00;3.08;;;;;;;;;;6182128;23;20349;-76
2021/01/02 10:59:28;;;;;;;4.85;3.20;;;;;;;;;;6154766;23;20434;-76
2021/01/02 11:01:55;;;;;;;3.65;2.63;;;;;;;;;;6181997;23;20101;-76
2021/01/02 11:04:23;;;;;;;3.92;2.92;;;;;;;;;;6182632;23;20095;-78
2021/01/02 11:06:49;;;;;;;6.40;3.28;;;;;;;;;;6180709;23;20099;-77
2021/01/02 11:09:16;;;;;;;7.40;3.00;;;;;;;;;;6183149;23;20104;-77
2021/01/02 11:11:43;;;;;;;4.63;3.05;;;;;;;;;;6182981;23;20087;-77
2021/01/02 11:14:10;;;;;;;5.93;3.05;;;;;;;;;;6183166;23;20533;-76
2021/01/02 11:16:38;;;;;;;5.57;3.17;;;;;;;;;;6182193;23;20025;-77
2021/01/02 11:19:14;;;;;;;4.50;3.22;;;;;;;;;;6155805;23;20021;-78
2021/01/02 11:21:41;;;;;;;5.45;3.25;;;;;;;;;;6183883;23;20064;-77
2021/01/02 11:24:09;;;;;;;7.93;2.92;;;;;;;;;;6183555;23;20060;-78
2021/01/02 11:26:36;;;;;;;4.88;3.90;;;;;;;;;;6183443;23;20057;-77
2021/01/02 11:29:02;;;;;;;4.65;2.92;;;;;;;;;;6183790;23;20344;-77
2021/01/02 11:31:29;;;;;;;5.18;3.65;;;;;;;;;;6183620;23;20092;-77
2021/01/02 11:33:55;;;;;;;5.70;3.05;;;;;;;;;;6156924;23;20079;-78
2021/01/02 11:36:22;;;;;;;5.07;3.58;;;;;;;;;;6183932;23;20460;-77
2021/01/02 11:38:49;;;;;;;4.15;3.15;;;;;;;;;;6183100;23;20029;-78
2021/01/02 11:41:17;;;;;;;4.63;2.75;;;;;;;;;;6183730;23;20057;-77
2021/01/02 11:43:43;;;;;;;5.15;2.90;;;;;;;;;;6183428;23;20017;-77
2021/01/02 11:46:09;;;;;;;7.25;3.05;;;;;;;;;;6183058;23;20066;-78
2021/01/02 11:48:40;;;;;;;4.60;2.90;;;;;;;;;;6183303;23;20031;-77
2021/01/02 11:51:13;;;;;;;3.00;2.40;;;;;;;;;;6183589;23;20088;-77
2021/01/02 11:53:39;;;;;;;5.30;3.33;;;;;;;;;;6183211;23;20083;-77
2021/01/02 11:56:05;;;;;;;3.45;2.60;;;;;;;;;;6183449;23;20048;-77
2021/01/02 11:58:32;;;;;;;3.80;2.90;;;;;;;;;;6183258;23;20099;-77
2021/01/02 12:00:58;;;;;;;4.63;2.72;;;;;;;;;;6182776;23;20357;-78
2021/01/02 12:03:24;;;;;;;3.30;2.40;;;;;;;;;;6183102;23;20021;-78
2021/01/02 12:05:51;;;;;;;4.25;2.70;;;;;;;;;;6183544;23;20104;-78
2021/01/02 12:08:17;;;;;;;3.10;2.40;;;;;;;;;;6182614;23;20099;-77
2021/01/02 12:10:44;;;;;;;3.22;2.40;;;;;;;;;;6182922;23;20017;-77
2021/01/02 12:13:10;;;;;;;4.38;3.03;;;;;;;;;;6182514;23;20100;-78
2021/01/02 12:15:36;;;;;;;3.10;2.42;;;;;;;;;;6156339;23;20116;-77
2021/01/02 12:18:02;;;;;;;7.85;2.97;;;;;;;;;;6182506;23;20063;-78
2021/01/02 12:20:29;;;;;;;3.53;2.80;;;;;;;;;;6182822;23;20473;-78
2021/01/02 12:22:55;;;;;;;4.45;2.67;;;;;;;;;;6183861;23;20374;-77
2021/01/02 12:25:23;;;;;;;3.97;3.33;;;;;;;;;;6182740;23;20341;-77
2021/01/02 12:27:49;;;;;;;3.65;2.78;;;;;;;;;;6157073;23;20418;-78
2021/01/02 12:30:15;;;;;;;3.90;2.72;;;;;;;;;;6182832;23;20344;-78
2021/01/02 12:32:42;;;;;;;5.38;2.55;;;;;;;;;;6182476;23;20100;-77
2021/01/02 12:35:08;;;;;;;4.00;2.88;;;;;;;;;;6182770;23;20025;-78
2021/01/02 12:37:34;;;;;;;4.07;2.25;;;;;;;;;;6183373;23;20017;-77
2021/01/02 12:40:00;;;;;;;4.25;2.58;;;;;;;;;;6183115;23;20035;-77
2021/01/02 12:42:26;;;;;;;4.80;2.50;;;;;;;;;;6182975;23;20104;-78
2021/01/02 12:44:52;;;;;;;4.65;2.92;;;;;;;;;;6180754;23;20021;-77
2021/01/02 12:47:19;;;;;;;3.47;2.80;;;;;;;;;;6181879;23;20017;-77
2021/01/02 12:49:46;;;;;;;3.95;2.53;;;;;;;;;;6183174;23;20540;-77
2021/01/02 12:52:12;;;;;;;3.95;2.55;;;;;;;;;;6182794;23;20021;-77
2021/01/02 12:54:40;;;;;;;5.03;2.63;;;;;;;;;;6182679;23;20021;-77
2021/01/02 12:57:06;;;;;;;4.07;2.53;;;;;;;;;;6183174;23;20370;-77
2021/01/02 12:59:33;;;;;;;4.05;2.80;;;;;;;;;;6182529;23;20021;-77
2021/01/02 13:02:00;;;;;;;4.03;2.33;;;;;;;;;;6182658;23;20017;-77
2021/01/02 13:04:27;;;;;;;3.22;2.50;;;;;;;;;;6156449;23;20035;-76
2021/01/02 13:06:58;;;;;;;4.63;2.60;;;;;;;;;;6182672;23;20021;-77
2021/01/02 13:09:25;;;;;;;3.65;2.60;;;;;;;;;;6183010;23;20134;-77
2021/01/02 13:11:53;;;;;;;3.65;2.63;;;;;;;;;;6183319;23;20017;-77
2021/01/02 13:14:24;;;;;;;2.28;1.92;;;;;;;;;;6182819;23;20025;-76
2021/01/02 13:16:54;;;;;;;3.40;2.90;;;;;;;;;;6182217;23;20611;-77
2021/01/02 13:19:21;;;;;;;2.60;1.92;;;;;;;;;;6156375;23;20022;-77
2021/01/02 13:21:48;;;;;;;3.17;1.88;;;;;;;;;;6183688;23;20445;-77
2021/01/02 13:24:14;;;;;;;5.35;2.35;;;;;;;;;;6184579;23;20099;-78
2021/01/02 13:26:40;;;;;;;4.43;2.58;;;;;;;;;;6185467;23;20024;-78
2021/01/02 13:29:07;;;;;;;3.50;2.25;;;;;;;;;;6184355;23;20103;-78
2021/01/02 13:31:43;;;;;;;4.28;2.65;;;;;;;;;;6157326;23;20489;-78
2021/01/02 13:34:10;;;;;;;3.70;2.28;;;;;;;;;;6184002;23;20025;-78
2021/01/02 13:36:39;;;;;;;4.55;2.17;;;;;;;;;;6184938;23;20613;-78
2021/01/02 13:39:07;;;;;;;3.08;2.25;;;;;;;;;;6184650;23;20486;-77
2021/01/02 13:41:33;;;;;;;3.15;2.20;;;;;;;;;;6183459;23;20071;-78
2021/01/02 13:43:59;;;;;;;3.65;2.22;;;;;;;;;;6157948;23;20025;-77
2021/01/02 13:46:25;;;;;;;4.65;2.15;;;;;;;;;;6184262;23;20023;-78
2021/01/02 13:48:51;;;;;;;4.47;2.58;;;;;;;;;;6184179;23;20025;-77
2021/01/02 13:51:18;;;;;;;4.15;2.30;;;;;;;;;;6184611;23;20025;-77
2021/01/02 13:53:44;;;;;;;2.95;1.88;;;;;;;;;;6184532;23;20473;-77
2021/01/02 13:56:11;;;;;;;3.25;2.45;;;;;;;;;;6184391;23;20462;-77
2021/01/02 13:58:38;;;;;;;3.75;2.33;;;;;;;;;;6183295;23;20715;-77
2021/01/02 14:01:04;;;;;;;3.53;2.20;;;;;;;;;;6184362;23;20100;-78
2021/01/02 14:03:30;;;;;;;3.13;1.95;;;;;;;;;;6184396;23;20105;-77
2021/01/02 14:05:57;;;;;;;3.35;2.10;;;;;;;;;;6183806;23;20099;-78
2021/01/02 14:08:23;;;;;;;2.53;1.83;;;;;;;;;;6184270;23;20031;-77
2021/01/02 14:10:49;;;;;;;4.00;2.10;;;;;;;;;;6183957;23;20052;-78
2021/01/02 14:13:15;;;;;;;2.60;1.77;;;;;;;;;;6183676;23;20104;-77
2021/01/02 14:15:41;;;;;;;3.80;2.65;;;;;;;;;;6184260;23;20096;-78
2021/01/02 14:18:07;;;;;;;2.33;1.45;;;;;;;;;;6181822;23;20032;-76
2021/01/02 14:20:33;;;;;;;3.63;2.00;;;;;;;;;;6183890;23;20025;-79
2021/01/02 14:22:59;;;;;;;4.55;1.80;;;;;;;;;;6182782;23;20337;-76
2021/01/02 14:25:25;;;;;;;3.20;1.85;;;;;;;;;;6183141;23;20028;-77
2021/01/02 14:27:51;;;;;;;3.33;2.03;;;;;;;;;;6182767;23;20025;-77
2021/01/02 14:30:18;;;;;;;2.50;1.80;;;;;;;;;;6183774;23;20453;-77
2021/01/02 14:32:44;;;;;;;4.82;2.20;;;;;;;;;;6182527;23;20104;-77
2021/01/02 14:35:10;;;;;;;4.53;1.92;;;;;;;;;;6182686;23;20449;-76
2021/01/02 14:37:39;;;;;;;3.33;2.08;;;;;;;;;;6182336;23;20018;-76
2021/01/02 14:40:06;;;;;;;3.30;2.83;;;;;;;;;;6182074;23;20025;-76
2021/01/02 14:42:32;;;;;;;3.40;2.25;;;;;;;;;;6182758;23;20056;-76
2021/01/02 14:45:02;;;;;;;3.28;2.40;;;;;;;;;;6182219;23;20025;-77
2021/01/02 14:47:28;;;;;;;3.55;2.00;;;;;;;;;;6182607;23;20365;-76
2021/01/02 14:49:54;;;;;;;3.83;2.05;;;;;;;;;;6180583;23;20025;-76
2021/01/02 14:52:20;;;;;;;2.80;1.77;;;;;;;;;;6179541;23;20025;-75
2021/01/02 14:54:48;;;;;;;2.88;1.90;;;;;;;;;;6181637;23;20028;-76